sensor_id;sensor_type;location;lat;lon;timestamp;temperature;humidity
57566;DHT22;63999;43.882;-0.310;2022-11-20T00:03:35;10.10;77.60
57566;DHT22;63999;43.882;-0.310;2022-11-20T00:06:05;10.10;77.50
57566;DHT22;63999;43.882;-0.310;2022-11-20T00:08:32;10.00;77.30
57566;DHT22;63999;43.882;-0.310;2022-11-20T00:11:01;10.00;76.90
57566;DHT22;63999;43.882;-0.310;2022-11-20T00:13:27;10.00;77.40
57566;DHT22;63999;43.882;-0.310;2022-11-20T00:16:03;10.00;77.30
57566;DHT22;63999;43.882;-0.310;2022-11-20T00:18:30;10.00;77.00
57566;DHT22;63999;43.882;-0.310;2022-11-20T00:21:06;10.00;76.80
57566;DHT22;63999;43.882;-0.310;2022-11-20T00:23:33;10.00;77.20
57566;DHT22;63999;43.882;-0.310;2022-11-20T00:26:03;10.00;76.90
57566;DHT22;63999;43.882;-0.310;2022-11-20T00:28:29;10.00;77.30
57566;DHT22;63999;43.882;-0.310;2022-11-20T00:31:09;10.00;77.30
57566;DHT22;63999;43.882;-0.310;2022-11-20T00:33:35;9.90;77.10
57566;DHT22;63999;43.882;-0.310;2022-11-20T00:36:09;9.80;77.20
57566;DHT22;63999;43.882;-0.310;2022-11-20T00:38:36;9.80;77.60
57566;DHT22;63999;43.882;-0.310;2022-11-20T00:41:04;9.80;77.70
57566;DHT22;63999;43.882;-0.310;2022-11-20T00:43:30;9.80;77.40
57566;DHT22;63999;43.882;-0.310;2022-11-20T00:46:00;9.80;77.40
57566;DHT22;63999;43.882;-0.310;2022-11-20T00:48:27;9.80;77.10
57566;DHT22;63999;43.882;-0.310;2022-11-20T00:50:53;9.70;76.90
57566;DHT22;63999;43.882;-0.310;2022-11-20T00:53:19;9.70;76.90
57566;DHT22;63999;43.882;-0.310;2022-11-20T00:56:05;9.70;77.00
57566;DHT22;63999;43.882;-0.310;2022-11-20T00:58:33;9.70;76.70
57566;DHT22;63999;43.882;-0.310;2022-11-20T01:01:10;9.70;77.30
57566;DHT22;63999;43.882;-0.310;2022-11-20T01:03:37;9.60;77.40
57566;DHT22;63999;43.882;-0.310;2022-11-20T01:06:38;9.60;77.60
57566;DHT22;63999;43.882;-0.310;2022-11-20T01:08:58;9.60;77.60
57566;DHT22;63999;43.882;-0.310;2022-11-20T01:11:36;9.60;77.50
57566;DHT22;63999;43.882;-0.310;2022-11-20T01:14:05;9.60;77.40
57566;DHT22;63999;43.882;-0.310;2022-11-20T01:16:42;9.60;76.70
57566;DHT22;63999;43.882;-0.310;2022-11-20T01:19:15;9.50;77.10
57566;DHT22;63999;43.882;-0.310;2022-11-20T01:21:43;9.50;76.90
57566;DHT22;63999;43.882;-0.310;2022-11-20T01:24:14;9.50;77.10
57566;DHT22;63999;43.882;-0.310;2022-11-20T01:26:42;9.50;76.80
57566;DHT22;63999;43.882;-0.310;2022-11-20T01:29:13;9.50;77.10
57566;DHT22;63999;43.882;-0.310;2022-11-20T01:31:40;9.40;77.30
57566;DHT22;63999;43.882;-0.310;2022-11-20T01:34:09;9.40;77.30
57566;DHT22;63999;43.882;-0.310;2022-11-20T01:36:36;9.40;76.70
57566;DHT22;63999;43.882;-0.310;2022-11-20T01:39:11;9.40;76.90
57566;DHT22;63999;43.882;-0.310;2022-11-20T01:41:38;9.40;77.80
57566;DHT22;63999;43.882;-0.310;2022-11-20T01:44:50;9.40;76.20
57566;DHT22;63999;43.882;-0.310;2022-11-20T01:47:40;9.40;76.70
57566;DHT22;63999;43.882;-0.310;2022-11-20T01:50:19;9.40;76.50
57566;DHT22;63999;43.882;-0.310;2022-11-20T01:52:55;9.40;76.80
57566;DHT22;63999;43.882;-0.310;2022-11-20T01:55:25;9.30;76.80
57566;DHT22;63999;43.882;-0.310;2022-11-20T01:57:52;9.30;77.50
57566;DHT22;63999;43.882;-0.310;2022-11-20T02:00:19;9.20;76.70
57566;DHT22;63999;43.882;-0.310;2022-11-20T02:02:53;9.20;76.60
57566;DHT22;63999;43.882;-0.310;2022-11-20T02:08:21;9.20;77.00
57566;DHT22;63999;43.882;-0.310;2022-11-20T02:10:48;9.20;76.70
57566;DHT22;63999;43.882;-0.310;2022-11-20T02:13:15;9.20;76.80
57566;DHT22;63999;43.882;-0.310;2022-11-20T02:15:59;9.20;76.60
57566;DHT22;63999;43.882;-0.310;2022-11-20T02:18:26;9.20;76.70
57566;DHT22;63999;43.882;-0.310;2022-11-20T02:21:00;9.10;76.20
57566;DHT22;63999;43.882;-0.310;2022-11-20T02:23:52;9.10;77.00
57566;DHT22;63999;43.882;-0.310;2022-11-20T02:26:18;9.10;76.70
57566;DHT22;63999;43.882;-0.310;2022-11-20T02:28:46;9.00;76.20
57566;DHT22;63999;43.882;-0.310;2022-11-20T02:31:11;9.00;76.60
57566;DHT22;63999;43.882;-0.310;2022-11-20T02:33:37;9.00;76.70
57566;DHT22;63999;43.882;-0.310;2022-11-20T02:36:03;9.00;76.60
57566;DHT22;63999;43.882;-0.310;2022-11-20T02:38:29;9.00;76.50
57566;DHT22;63999;43.882;-0.310;2022-11-20T02:40:55;9.00;76.20
57566;DHT22;63999;43.882;-0.310;2022-11-20T02:43:21;9.00;76.40
57566;DHT22;63999;43.882;-0.310;2022-11-20T02:45:47;9.00;75.90
57566;DHT22;63999;43.882;-0.310;2022-11-20T02:48:13;9.00;76.30
57566;DHT22;63999;43.882;-0.310;2022-11-20T02:50:39;9.00;76.90
57566;DHT22;63999;43.882;-0.310;2022-11-20T02:53:06;8.90;76.90
57566;DHT22;63999;43.882;-0.310;2022-11-20T02:55:32;9.00;76.40
57566;DHT22;63999;43.882;-0.310;2022-11-20T02:57:57;8.90;77.00
57566;DHT22;63999;43.882;-0.310;2022-11-20T03:00:23;8.90;76.60
57566;DHT22;63999;43.882;-0.310;2022-11-20T03:02:49;8.90;76.70
57566;DHT22;63999;43.882;-0.310;2022-11-20T03:05:14;8.90;76.30
57566;DHT22;63999;43.882;-0.310;2022-11-20T03:07:40;8.80;75.90
57566;DHT22;63999;43.882;-0.310;2022-11-20T03:10:06;8.80;76.40
57566;DHT22;63999;43.882;-0.310;2022-11-20T03:12:32;8.80;76.30
57566;DHT22;63999;43.882;-0.310;2022-11-20T03:14:58;8.80;75.80
57566;DHT22;63999;43.882;-0.310;2022-11-20T03:17:24;8.80;76.50
57566;DHT22;63999;43.882;-0.310;2022-11-20T03:19:50;8.80;76.60
57566;DHT22;63999;43.882;-0.310;2022-11-20T03:22:15;8.80;76.20
57566;DHT22;63999;43.882;-0.310;2022-11-20T03:24:41;8.80;76.90
57566;DHT22;63999;43.882;-0.310;2022-11-20T03:27:07;8.70;76.20
57566;DHT22;63999;43.882;-0.310;2022-11-20T03:29:32;8.70;76.20
57566;DHT22;63999;43.882;-0.310;2022-11-20T03:31:58;8.70;76.30
57566;DHT22;63999;43.882;-0.310;2022-11-20T03:34:24;8.60;76.20
57566;DHT22;63999;43.882;-0.310;2022-11-20T03:36:49;8.60;75.80
57566;DHT22;63999;43.882;-0.310;2022-11-20T03:39:15;8.60;75.50
57566;DHT22;63999;43.882;-0.310;2022-11-20T03:41:41;8.60;75.10
57566;DHT22;63999;43.882;-0.310;2022-11-20T03:44:09;8.60;76.00
57566;DHT22;63999;43.882;-0.310;2022-11-20T03:46:35;8.60;76.00
57566;DHT22;63999;43.882;-0.310;2022-11-20T03:49:01;8.60;76.00
57566;DHT22;63999;43.882;-0.310;2022-11-20T03:51:29;8.60;76.00
57566;DHT22;63999;43.882;-0.310;2022-11-20T03:53:57;8.60;76.50
57566;DHT22;63999;43.882;-0.310;2022-11-20T03:56:26;8.60;76.30
57566;DHT22;63999;43.882;-0.310;2022-11-20T03:58:52;8.60;75.60
57566;DHT22;63999;43.882;-0.310;2022-11-20T04:01:20;8.50;76.00
57566;DHT22;63999;43.882;-0.310;2022-11-20T04:03:47;8.50;75.80
57566;DHT22;63999;43.882;-0.310;2022-11-20T04:06:19;8.50;76.20
57566;DHT22;63999;43.882;-0.310;2022-11-20T04:08:45;8.50;76.20
57566;DHT22;63999;43.882;-0.310;2022-11-20T04:11:14;8.50;76.30
57566;DHT22;63999;43.882;-0.310;2022-11-20T04:13:41;8.50;75.90
57566;DHT22;63999;43.882;-0.310;2022-11-20T04:16:09;8.50;75.90
57566;DHT22;63999;43.882;-0.310;2022-11-20T04:18:35;8.50;76.00
57566;DHT22;63999;43.882;-0.310;2022-11-20T04:21:02;8.50;76.40
57566;DHT22;63999;43.882;-0.310;2022-11-20T04:23:28;8.50;75.80
57566;DHT22;63999;43.882;-0.310;2022-11-20T04:25:53;8.50;76.10
57566;DHT22;63999;43.882;-0.310;2022-11-20T04:28:19;8.40;76.00
57566;DHT22;63999;43.882;-0.310;2022-11-20T04:30:45;8.40;75.70
57566;DHT22;63999;43.882;-0.310;2022-11-20T04:33:11;8.40;76.30
57566;DHT22;63999;43.882;-0.310;2022-11-20T04:35:37;8.40;76.10
57566;DHT22;63999;43.882;-0.310;2022-11-20T04:38:04;8.40;76.60
57566;DHT22;63999;43.882;-0.310;2022-11-20T04:40:30;8.40;76.50
57566;DHT22;63999;43.882;-0.310;2022-11-20T04:42:56;8.40;76.30
57566;DHT22;63999;43.882;-0.310;2022-11-20T04:45:25;8.40;76.50
57566;DHT22;63999;43.882;-0.310;2022-11-20T04:47:50;8.50;76.20
57566;DHT22;63999;43.882;-0.310;2022-11-20T04:50:16;8.50;75.50
57566;DHT22;63999;43.882;-0.310;2022-11-20T04:52:42;8.40;76.00
57566;DHT22;63999;43.882;-0.310;2022-11-20T04:55:07;8.40;76.00
57566;DHT22;63999;43.882;-0.310;2022-11-20T04:57:33;8.40;76.10
57566;DHT22;63999;43.882;-0.310;2022-11-20T04:59:59;8.40;76.50
57566;DHT22;63999;43.882;-0.310;2022-11-20T05:02:24;8.40;76.50
57566;DHT22;63999;43.882;-0.310;2022-11-20T05:04:50;8.40;76.10
57566;DHT22;63999;43.882;-0.310;2022-11-20T05:07:16;8.40;76.20
57566;DHT22;63999;43.882;-0.310;2022-11-20T05:09:42;8.40;75.90
57566;DHT22;63999;43.882;-0.310;2022-11-20T05:12:08;8.40;76.10
57566;DHT22;63999;43.882;-0.310;2022-11-20T05:14:34;8.40;76.10
57566;DHT22;63999;43.882;-0.310;2022-11-20T05:17:00;8.40;75.70
57566;DHT22;63999;43.882;-0.310;2022-11-20T05:19:26;8.40;75.30
57566;DHT22;63999;43.882;-0.310;2022-11-20T05:21:52;8.40;76.30
57566;DHT22;63999;43.882;-0.310;2022-11-20T05:24:17;8.40;76.60
57566;DHT22;63999;43.882;-0.310;2022-11-20T05:26:43;8.40;76.30
57566;DHT22;63999;43.882;-0.310;2022-11-20T05:29:11;8.40;75.80
57566;DHT22;63999;43.882;-0.310;2022-11-20T05:31:39;8.40;75.40
57566;DHT22;63999;43.882;-0.310;2022-11-20T05:34:05;8.40;74.80
57566;DHT22;63999;43.882;-0.310;2022-11-20T05:36:32;8.40;75.50
57566;DHT22;63999;43.882;-0.310;2022-11-20T05:38:58;8.40;75.10
57566;DHT22;63999;43.882;-0.310;2022-11-20T05:41:24;8.40;75.10
57566;DHT22;63999;43.882;-0.310;2022-11-20T05:43:50;8.40;74.60
57566;DHT22;63999;43.882;-0.310;2022-11-20T05:46:18;8.40;74.50
57566;DHT22;63999;43.882;-0.310;2022-11-20T05:48:45;8.40;74.40
57566;DHT22;63999;43.882;-0.310;2022-11-20T05:51:16;8.40;75.70
57566;DHT22;63999;43.882;-0.310;2022-11-20T05:53:42;8.40;75.50
57566;DHT22;63999;43.882;-0.310;2022-11-20T05:56:11;8.40;76.50
57566;DHT22;63999;43.882;-0.310;2022-11-20T05:58:38;8.40;75.30
57566;DHT22;63999;43.882;-0.310;2022-11-20T06:01:15;8.40;76.20
57566;DHT22;63999;43.882;-0.310;2022-11-20T06:03:42;8.40;76.00
57566;DHT22;63999;43.882;-0.310;2022-11-20T06:06:11;8.40;75.60
57566;DHT22;63999;43.882;-0.310;2022-11-20T06:08:37;8.40;76.00
57566;DHT22;63999;43.882;-0.310;2022-11-20T06:11:07;8.40;75.70
57566;DHT22;63999;43.882;-0.310;2022-11-20T06:13:33;8.40;74.70
57566;DHT22;63999;43.882;-0.310;2022-11-20T06:15:59;8.40;75.10
57566;DHT22;63999;43.882;-0.310;2022-11-20T06:18:29;8.40;75.70
57566;DHT22;63999;43.882;-0.310;2022-11-20T06:21:09;8.40;75.70
57566;DHT22;63999;43.882;-0.310;2022-11-20T06:23:35;8.40;75.60
57566;DHT22;63999;43.882;-0.310;2022-11-20T06:26:10;8.30;76.10
57566;DHT22;63999;43.882;-0.310;2022-11-20T06:28:36;8.40;76.60
57566;DHT22;63999;43.882;-0.310;2022-11-20T06:31:04;8.30;77.00
57566;DHT22;63999;43.882;-0.310;2022-11-20T06:33:30;8.30;76.50
57566;DHT22;63999;43.882;-0.310;2022-11-20T06:35:57;8.30;75.90
57566;DHT22;63999;43.882;-0.310;2022-11-20T06:38:24;8.30;75.60
57566;DHT22;63999;43.882;-0.310;2022-11-20T06:40:50;8.30;75.40
57566;DHT22;63999;43.882;-0.310;2022-11-20T06:43:16;8.30;75.40
57566;DHT22;63999;43.882;-0.310;2022-11-20T06:45:41;8.30;75.40
57566;DHT22;63999;43.882;-0.310;2022-11-20T06:48:08;8.30;75.10
57566;DHT22;63999;43.882;-0.310;2022-11-20T06:50:36;8.30;75.90
57566;DHT22;63999;43.882;-0.310;2022-11-20T06:53:03;8.30;75.70
57566;DHT22;63999;43.882;-0.310;2022-11-20T06:55:30;8.30;76.00
57566;DHT22;63999;43.882;-0.310;2022-11-20T06:57:56;8.30;76.10
57566;DHT22;63999;43.882;-0.310;2022-11-20T07:00:21;8.40;76.60
57566;DHT22;63999;43.882;-0.310;2022-11-20T07:02:47;8.30;75.10
57566;DHT22;63999;43.882;-0.310;2022-11-20T07:05:13;8.30;75.50
57566;DHT22;63999;43.882;-0.310;2022-11-20T07:07:39;8.30;76.00
57566;DHT22;63999;43.882;-0.310;2022-11-20T07:10:05;8.30;76.00
57566;DHT22;63999;43.882;-0.310;2022-11-20T07:12:31;8.30;75.50
57566;DHT22;63999;43.882;-0.310;2022-11-20T07:14:56;8.30;76.00
57566;DHT22;63999;43.882;-0.310;2022-11-20T07:17:22;8.30;76.50
57566;DHT22;63999;43.882;-0.310;2022-11-20T07:19:54;8.30;76.00
57566;DHT22;63999;43.882;-0.310;2022-11-20T07:22:21;8.30;76.10
57566;DHT22;63999;43.882;-0.310;2022-11-20T07:24:54;8.30;76.20
57566;DHT22;63999;43.882;-0.310;2022-11-20T07:27:22;8.30;75.90
57566;DHT22;63999;43.882;-0.310;2022-11-20T07:29:51;8.30;75.90
57566;DHT22;63999;43.882;-0.310;2022-11-20T07:32:20;8.30;75.90
57566;DHT22;63999;43.882;-0.310;2022-11-20T07:34:47;8.30;76.10
57566;DHT22;63999;43.882;-0.310;2022-11-20T07:37:15;8.30;75.10
57566;DHT22;63999;43.882;-0.310;2022-11-20T07:39:42;8.30;75.50
57566;DHT22;63999;43.882;-0.310;2022-11-20T07:42:15;8.30;76.00
57566;DHT22;63999;43.882;-0.310;2022-11-20T07:44:45;8.20;75.70
57566;DHT22;63999;43.882;-0.310;2022-11-20T07:47:12;8.20;75.40
57566;DHT22;63999;43.882;-0.310;2022-11-20T07:49:41;8.20;76.20
57566;DHT22;63999;43.882;-0.310;2022-11-20T07:52:07;8.30;75.80
57566;DHT22;63999;43.882;-0.310;2022-11-20T07:54:33;8.30;75.80
57566;DHT22;63999;43.882;-0.310;2022-11-20T07:56:59;8.30;76.70
57566;DHT22;63999;43.882;-0.310;2022-11-20T07:59:25;8.30;76.50
57566;DHT22;63999;43.882;-0.310;2022-11-20T08:01:55;8.30;76.10
57566;DHT22;63999;43.882;-0.310;2022-11-20T08:04:22;8.30;75.90
57566;DHT22;63999;43.882;-0.310;2022-11-20T08:06:51;8.30;75.80
57566;DHT22;63999;43.882;-0.310;2022-11-20T08:09:17;8.30;76.20
57566;DHT22;63999;43.882;-0.310;2022-11-20T08:11:44;8.30;76.30
57566;DHT22;63999;43.882;-0.310;2022-11-20T08:14:28;8.30;75.70
57566;DHT22;63999;43.882;-0.310;2022-11-20T08:16:54;8.30;76.10
57566;DHT22;63999;43.882;-0.310;2022-11-20T08:19:20;8.30;76.40
57566;DHT22;63999;43.882;-0.310;2022-11-20T08:21:46;8.30;76.40
57566;DHT22;63999;43.882;-0.310;2022-11-20T08:24:12;8.40;76.50
57566;DHT22;63999;43.882;-0.310;2022-11-20T08:26:39;8.40;76.90
57566;DHT22;63999;43.882;-0.310;2022-11-20T08:29:05;8.40;76.50
57566;DHT22;63999;43.882;-0.310;2022-11-20T08:31:32;8.40;76.80
57566;DHT22;63999;43.882;-0.310;2022-11-20T08:33:57;8.40;76.70
57566;DHT22;63999;43.882;-0.310;2022-11-20T08:36:24;8.40;76.40
57566;DHT22;63999;43.882;-0.310;2022-11-20T08:38:51;8.50;76.80
57566;DHT22;63999;43.882;-0.310;2022-11-20T08:41:17;8.50;76.80
57566;DHT22;63999;43.882;-0.310;2022-11-20T08:43:50;8.50;77.00
57566;DHT22;63999;43.882;-0.310;2022-11-20T08:46:16;8.50;76.80
57566;DHT22;63999;43.882;-0.310;2022-11-20T08:48:42;8.50;77.50
57566;DHT22;63999;43.882;-0.310;2022-11-20T08:51:08;8.50;77.50
57566;DHT22;63999;43.882;-0.310;2022-11-20T08:53:34;8.60;77.40
57566;DHT22;63999;43.882;-0.310;2022-11-20T08:56:00;8.60;77.20
57566;DHT22;63999;43.882;-0.310;2022-11-20T08:58:26;8.60;77.70
57566;DHT22;63999;43.882;-0.310;2022-11-20T09:00:52;8.60;77.70
57566;DHT22;63999;43.882;-0.310;2022-11-20T09:03:18;8.60;77.60
57566;DHT22;63999;43.882;-0.310;2022-11-20T09:05:49;8.60;77.90
57566;DHT22;63999;43.882;-0.310;2022-11-20T09:08:16;8.60;77.20
57566;DHT22;63999;43.882;-0.310;2022-11-20T09:10:41;8.60;77.20
57566;DHT22;63999;43.882;-0.310;2022-11-20T09:13:07;8.60;77.50
57566;DHT22;63999;43.882;-0.310;2022-11-20T09:15:39;8.70;77.50
57566;DHT22;63999;43.882;-0.310;2022-11-20T09:18:05;8.70;77.50
57566;DHT22;63999;43.882;-0.310;2022-11-20T09:20:34;8.80;77.40
57566;DHT22;63999;43.882;-0.310;2022-11-20T09:23:01;8.80;77.70
57566;DHT22;63999;43.882;-0.310;2022-11-20T09:25:27;8.80;77.80
57566;DHT22;63999;43.882;-0.310;2022-11-20T09:27:59;8.80;77.60
57566;DHT22;63999;43.882;-0.310;2022-11-20T09:30:26;8.80;77.20
57566;DHT22;63999;43.882;-0.310;2022-11-20T09:32:52;8.80;77.40
57566;DHT22;63999;43.882;-0.310;2022-11-20T09:35:18;8.90;77.60
57566;DHT22;63999;43.882;-0.310;2022-11-20T09:37:44;8.90;77.80
57566;DHT22;63999;43.882;-0.310;2022-11-20T09:40:20;8.90;77.70
57566;DHT22;63999;43.882;-0.310;2022-11-20T09:56:52;9.00;78.10
57566;DHT22;63999;43.882;-0.310;2022-11-20T09:59:38;9.00;78.00
57566;DHT22;63999;43.882;-0.310;2022-11-20T10:05:23;9.00;78.10
57566;DHT22;63999;43.882;-0.310;2022-11-20T10:16:01;9.10;78.20
57566;DHT22;63999;43.882;-0.310;2022-11-20T10:19:04;9.20;78.40
57566;DHT22;63999;43.882;-0.310;2022-11-20T10:29:46;9.20;78.40
57566;DHT22;63999;43.882;-0.310;2022-11-20T10:32:20;9.20;78.20
57566;DHT22;63999;43.882;-0.310;2022-11-20T10:37:47;9.20;78.90
57566;DHT22;63999;43.882;-0.310;2022-11-20T10:43:01;9.20;78.70
57566;DHT22;63999;43.882;-0.310;2022-11-20T10:45:40;9.20;79.40
57566;DHT22;63999;43.882;-0.310;2022-11-20T10:48:16;9.20;79.30
57566;DHT22;63999;43.882;-0.310;2022-11-20T10:56:46;9.30;79.10
57566;DHT22;63999;43.882;-0.310;2022-11-20T11:02:20;9.40;79.00
57566;DHT22;63999;43.882;-0.310;2022-11-20T11:04:51;9.40;79.00
57566;DHT22;63999;43.882;-0.310;2022-11-20T11:07:38;9.40;79.00
57566;DHT22;63999;43.882;-0.310;2022-11-20T11:10:16;9.40;79.30
57566;DHT22;63999;43.882;-0.310;2022-11-20T11:12:47;9.40;79.30
57566;DHT22;63999;43.882;-0.310;2022-11-20T11:15:38;9.40;79.40
57566;DHT22;63999;43.882;-0.310;2022-11-20T11:18:04;9.40;79.40
57566;DHT22;63999;43.882;-0.310;2022-11-20T11:20:30;9.50;79.40
57566;DHT22;63999;43.882;-0.310;2022-11-20T11:22:59;9.40;79.40
57566;DHT22;63999;43.882;-0.310;2022-11-20T11:25:38;9.50;78.90
57566;DHT22;63999;43.882;-0.310;2022-11-20T11:28:25;9.50;79.10
57566;DHT22;63999;43.882;-0.310;2022-11-20T11:30:53;9.40;79.40
57566;DHT22;63999;43.882;-0.310;2022-11-20T11:33:30;9.50;79.40
57566;DHT22;63999;43.882;-0.310;2022-11-20T11:36:00;9.50;79.90
57566;DHT22;63999;43.882;-0.310;2022-11-20T11:38:39;9.50;79.80
57566;DHT22;63999;43.882;-0.310;2022-11-20T11:41:09;9.50;79.20
57566;DHT22;63999;43.882;-0.310;2022-11-20T11:43:38;9.50;79.60
57566;DHT22;63999;43.882;-0.310;2022-11-20T11:57:00;9.70;80.30
57566;DHT22;63999;43.882;-0.310;2022-11-20T12:00:18;9.80;80.40
57566;DHT22;63999;43.882;-0.310;2022-11-20T12:05:16;9.90;80.50
57566;DHT22;63999;43.882;-0.310;2022-11-20T12:07:47;9.80;80.40
57566;DHT22;63999;43.882;-0.310;2022-11-20T12:13:02;10.00;80.70
57566;DHT22;63999;43.882;-0.310;2022-11-20T12:15:31;10.00;80.70
57566;DHT22;63999;43.882;-0.310;2022-11-20T12:17:58;10.00;80.90
57566;DHT22;63999;43.882;-0.310;2022-11-20T12:20:28;10.00;81.00
57566;DHT22;63999;43.882;-0.310;2022-11-20T12:25:30;10.10;81.30
57566;DHT22;63999;43.882;-0.310;2022-11-20T12:28:19;10.20;81.30
57566;DHT22;63999;43.882;-0.310;2022-11-20T12:36:16;10.20;81.10
57566;DHT22;63999;43.882;-0.310;2022-11-20T12:41:47;10.20;81.70
57566;DHT22;63999;43.882;-0.310;2022-11-20T12:47:38;10.30;82.20
57566;DHT22;63999;43.882;-0.310;2022-11-20T13:06:54;10.40;83.10
57566;DHT22;63999;43.882;-0.310;2022-11-20T13:09:22;10.40;83.30
57566;DHT22;63999;43.882;-0.310;2022-11-20T13:14:42;10.50;83.40
57566;DHT22;63999;43.882;-0.310;2022-11-20T13:17:56;10.50;83.60
57566;DHT22;63999;43.882;-0.310;2022-11-20T13:20:05;10.50;83.30
57566;DHT22;63999;43.882;-0.310;2022-11-20T13:22:49;10.50;83.40
57566;DHT22;63999;43.882;-0.310;2022-11-20T13:25:33;10.50;83.50
57566;DHT22;63999;43.882;-0.310;2022-11-20T13:28:05;10.60;83.90
57566;DHT22;63999;43.882;-0.310;2022-11-20T13:30:56;10.60;83.70
57566;DHT22;63999;43.882;-0.310;2022-11-20T13:36:00;10.80;83.90
57566;DHT22;63999;43.882;-0.310;2022-11-20T13:38:26;10.80;83.50
57566;DHT22;63999;43.882;-0.310;2022-11-20T13:41:00;10.80;83.30
57566;DHT22;63999;43.882;-0.310;2022-11-20T13:43:49;10.80;83.50
57566;DHT22;63999;43.882;-0.310;2022-11-20T13:46:15;10.80;83.90
57566;DHT22;63999;43.882;-0.310;2022-11-20T13:48:44;10.80;83.50
57566;DHT22;63999;43.882;-0.310;2022-11-20T13:54:31;10.80;83.10
57566;DHT22;63999;43.882;-0.310;2022-11-20T14:00:03;10.80;83.20
57566;DHT22;63999;43.882;-0.310;2022-11-20T14:02:30;10.80;83.20
57566;DHT22;63999;43.882;-0.310;2022-11-20T14:05:00;10.80;82.60
57566;DHT22;63999;43.882;-0.310;2022-11-20T14:07:35;10.80;82.50
57566;DHT22;63999;43.882;-0.310;2022-11-20T14:10:02;10.70;82.60
57566;DHT22;63999;43.882;-0.310;2022-11-20T14:12:30;10.80;83.10
57566;DHT22;63999;43.882;-0.310;2022-11-20T14:14:57;10.80;82.90
57566;DHT22;63999;43.882;-0.310;2022-11-20T14:17:30;10.80;82.60
57566;DHT22;63999;43.882;-0.310;2022-11-20T14:20:00;10.80;82.70
57566;DHT22;63999;43.882;-0.310;2022-11-20T14:22:29;10.70;82.90
57566;DHT22;63999;43.882;-0.310;2022-11-20T14:27:51;10.80;82.40
57566;DHT22;63999;43.882;-0.310;2022-11-20T14:30:21;10.80;82.60
57566;DHT22;63999;43.882;-0.310;2022-11-20T14:32:50;10.80;82.60
57566;DHT22;63999;43.882;-0.310;2022-11-20T14:35:34;10.80;82.50
57566;DHT22;63999;43.882;-0.310;2022-11-20T14:38:01;10.80;83.10
57566;DHT22;63999;43.882;-0.310;2022-11-20T14:40:33;10.80;82.90
57566;DHT22;63999;43.882;-0.310;2022-11-20T14:46:03;10.80;83.00
57566;DHT22;63999;43.882;-0.310;2022-11-20T14:48:38;10.80;82.90
57566;DHT22;63999;43.882;-0.310;2022-11-20T14:51:04;10.80;82.60
57566;DHT22;63999;43.882;-0.310;2022-11-20T14:53:30;10.80;83.10
57566;DHT22;63999;43.882;-0.310;2022-11-20T14:55:58;10.80;82.80
57566;DHT22;63999;43.882;-0.310;2022-11-20T14:58:27;10.80;83.00
57566;DHT22;63999;43.882;-0.310;2022-11-20T15:01:02;10.80;82.70
57566;DHT22;63999;43.882;-0.310;2022-11-20T15:03:37;10.80;83.10
57566;DHT22;63999;43.882;-0.310;2022-11-20T15:06:04;10.80;82.80
57566;DHT22;63999;43.882;-0.310;2022-11-20T15:08:31;10.80;82.70
57566;DHT22;63999;43.882;-0.310;2022-11-20T15:10:58;10.80;83.00
57566;DHT22;63999;43.882;-0.310;2022-11-20T15:13:34;10.80;82.20
57566;DHT22;63999;43.882;-0.310;2022-11-20T15:16:02;10.80;83.00
57566;DHT22;63999;43.882;-0.310;2022-11-20T15:18:36;10.80;82.90
57566;DHT22;63999;43.882;-0.310;2022-11-20T15:21:07;10.90;82.80
57566;DHT22;63999;43.882;-0.310;2022-11-20T15:23:34;10.80;82.90
57566;DHT22;63999;43.882;-0.310;2022-11-20T15:26:00;10.90;83.00
57566;DHT22;63999;43.882;-0.310;2022-11-20T15:28:37;10.90;82.80
57566;DHT22;63999;43.882;-0.310;2022-11-20T15:31:05;10.80;82.90
57566;DHT22;63999;43.882;-0.310;2022-11-20T15:33:32;10.90;82.80
57566;DHT22;63999;43.882;-0.310;2022-11-20T15:36:01;10.90;82.80
57566;DHT22;63999;43.882;-0.310;2022-11-20T15:38:29;10.90;83.00
57566;DHT22;63999;43.882;-0.310;2022-11-20T15:40:56;10.90;83.30
57566;DHT22;63999;43.882;-0.310;2022-11-20T15:43:22;10.90;83.00
57566;DHT22;63999;43.882;-0.310;2022-11-20T15:45:51;10.90;83.00
57566;DHT22;63999;43.882;-0.310;2022-11-20T15:48:23;10.90;83.00
57566;DHT22;63999;43.882;-0.310;2022-11-20T15:50:58;10.90;82.80
57566;DHT22;63999;43.882;-0.310;2022-11-20T15:53:25;10.90;82.90
57566;DHT22;63999;43.882;-0.310;2022-11-20T15:55:56;10.90;83.00
57566;DHT22;63999;43.882;-0.310;2022-11-20T15:58:25;10.90;82.90
57566;DHT22;63999;43.882;-0.310;2022-11-20T16:01:21;10.90;82.60
57566;DHT22;63999;43.882;-0.310;2022-11-20T16:03:55;11.00;82.50
57566;DHT22;63999;43.882;-0.310;2022-11-20T16:06:40;10.90;82.90
57566;DHT22;63999;43.882;-0.310;2022-11-20T16:09:08;10.90;82.80
57566;DHT22;63999;43.882;-0.310;2022-11-20T16:11:35;10.90;82.70
57566;DHT22;63999;43.882;-0.310;2022-11-20T16:14:13;10.90;82.60
57566;DHT22;63999;43.882;-0.310;2022-11-20T16:20:11;10.90;82.30
57566;DHT22;63999;43.882;-0.310;2022-11-20T16:22:55;10.90;82.60
57566;DHT22;63999;43.882;-0.310;2022-11-20T16:28:30;10.90;82.80
57566;DHT22;63999;43.882;-0.310;2022-11-20T16:31:17;10.90;82.60
57566;DHT22;63999;43.882;-0.310;2022-11-20T16:34:01;10.90;82.80
57566;DHT22;63999;43.882;-0.310;2022-11-20T16:36:38;10.90;82.80
57566;DHT22;63999;43.882;-0.310;2022-11-20T16:39:19;10.90;82.70
57566;DHT22;63999;43.882;-0.310;2022-11-20T16:41:45;10.90;83.00
57566;DHT22;63999;43.882;-0.310;2022-11-20T16:44:11;10.90;82.90
57566;DHT22;63999;43.882;-0.310;2022-11-20T16:46:37;10.90;82.80
57566;DHT22;63999;43.882;-0.310;2022-11-20T16:49:05;10.90;82.30
57566;DHT22;63999;43.882;-0.310;2022-11-20T16:51:34;10.90;82.60
57566;DHT22;63999;43.882;-0.310;2022-11-20T16:54:05;10.90;82.50
57566;DHT22;63999;43.882;-0.310;2022-11-20T16:56:31;10.90;83.00
57566;DHT22;63999;43.882;-0.310;2022-11-20T16:59:06;10.90;82.90
57566;DHT22;63999;43.882;-0.310;2022-11-20T17:01:32;10.90;82.30
57566;DHT22;63999;43.882;-0.310;2022-11-20T17:04:02;10.90;82.90
57566;DHT22;63999;43.882;-0.310;2022-11-20T17:06:34;10.90;82.60
57566;DHT22;63999;43.882;-0.310;2022-11-20T17:09:00;10.90;82.60
57566;DHT22;63999;43.882;-0.310;2022-11-20T17:11:27;10.90;82.60
57566;DHT22;63999;43.882;-0.310;2022-11-20T17:13:57;10.90;82.70
57566;DHT22;63999;43.882;-0.310;2022-11-20T17:16:28;10.90;83.00
57566;DHT22;63999;43.882;-0.310;2022-11-20T17:18:56;10.90;82.90
57566;DHT22;63999;43.882;-0.310;2022-11-20T17:21:22;10.90;82.50
57566;DHT22;63999;43.882;-0.310;2022-11-20T17:23:48;10.90;82.50
57566;DHT22;63999;43.882;-0.310;2022-11-20T17:26:16;10.90;82.30
57566;DHT22;63999;43.882;-0.310;2022-11-20T17:28:43;10.90;82.50
57566;DHT22;63999;43.882;-0.310;2022-11-20T17:31:15;10.90;82.60
57566;DHT22;63999;43.882;-0.310;2022-11-20T17:33:44;10.90;82.80
57566;DHT22;63999;43.882;-0.310;2022-11-20T17:36:13;10.90;82.80
57566;DHT22;63999;43.882;-0.310;2022-11-20T17:38:40;11.00;82.70
57566;DHT22;63999;43.882;-0.310;2022-11-20T17:41:13;11.00;82.80
57566;DHT22;63999;43.882;-0.310;2022-11-20T17:43:44;10.90;82.60
57566;DHT22;63999;43.882;-0.310;2022-11-20T17:46:15;11.00;82.60